• Join FlightAware (Why Join?)
  • Login
  • US Flag 
08:15AM EDT


 

Airport Tracker/Info


-or-


 

Live Flight TrackerFlight Track Log ✈ N405SP ✈ 04-Aug-2013 ✈ KPJC - KBKL

Flight Track Log - Related Links

Times and Time Zones

All times are in EDT time to prevent confusion due to time zone crossing. See the N405SP flight status page for this flight to view local times or setup timezone preferences in your user account.

Time Position Orientation Groundspeed Altitude Reporting Facility
EDT Latitude Longitude Course Direction KTS MPH feet Rate Location/Type
03:53PM 40.8979 -80.3624 304° West  Level FlightAware Approximate
03:54PM 40.9128 -80.3920 303° West  Level FlightAware Approximate
03:55PM 40.9276 -80.4217 303° West  Level FlightAware Approximate
03:56PM 40.9424 -80.4514 303° West  Level FlightAware Approximate
03:57PM 40.9568 -80.4814 302° West  Level FlightAware Approximate
03:58PM 40.9709 -80.5118 302° West  Level FlightAware Approximate
03:59PM 40.9850 -80.5422 302° West  Level FlightAware Approximate
04:00PM 40.9990 -80.5725 302° West  Level FlightAware Approximate
04:01PM 41.0131 -80.6029 302° West  Level FlightAware Approximate
04:02PM 41.0271 -80.6333 301° West  Level FlightAware Approximate
04:03PM 41.0412 -80.6637 301° West  Level FlightAware Approximate
04:04PM 41.0552 -80.6942 301° West  Level FlightAware Approximate
04:05PM 41.0692 -80.7246 301° West  Level FlightAware Approximate
04:06PM 41.0832 -80.7550 301° West  Level FlightAware Approximate
04:07PM 41.0972 -80.7855 301° West  Level FlightAware Approximate
04:08PM 41.1112 -80.8160 301° West  Level FlightAware Approximate
04:09PM 41.1252 -80.8465 301° West  Level FlightAware Approximate
04:10PM 41.1392 -80.8770 301° West  Level FlightAware Approximate
04:11PM 41.1531 -80.9075 301° West  Level FlightAware Approximate
04:12PM 41.1671 -80.9380 301° West  Level FlightAware Approximate
04:13PM 41.1810 -80.9686 301° West  Level FlightAware Approximate
04:13PM 41.3383 -80.9233 302° West 105 121 4,000  Level Cleveland Center
04:14PM 41.1950 -80.9991 301° West  Level FlightAware Approximate
04:14PM 41.3550 -80.9456 315° West 108 124 4,100  Level Cleveland Center
04:15PM 41.2089 -81.0297 301° West  Level FlightAware Approximate
04:15PM 41.3714 -80.9761 306° West 105 121 4,200  Level Cleveland Center
04:16PM 41.2228 -81.0603 301° West  Level FlightAware Approximate
04:16PM 41.3900 -81.0067 309° West 108 124 4,100  Level Cleveland Center
04:17PM 41.2370 -81.0907 304° West  Level FlightAware Approximate
04:17PM 41.4108 -81.0344 315° West 108 124 4,100  Level Cleveland Center
04:18PM 41.2518 -81.1205 302° West  Level FlightAware Approximate
04:18PM 41.4317 -81.0678 310° West 109 125 4,100  Level Cleveland Center
04:19PM 41.4522 -81.0956 315° West 113 130 3,900 -60 Descending Cleveland Center
04:20PM 41.4731 -81.1264 312° West 109 125 4,000 -180 Climbing Cleveland Center
04:21PM 41.4833 -81.1597 292° West 112 129 3,600 -540 Descending Cleveland Center
04:22PM 41.4850 -81.2067 273° West 118 136 3,000 -180 Descending Cleveland Center
04:24PM 41.4950 -81.2872 279° West 108 124 3,100 60 Climbing Cleveland Center
04:25PM 41.4969 -81.3261 274° West 104 120 3,200 -60 Climbing Cleveland Center
04:26PM 41.4986 -81.3678 273° West 117 135 3,000 -180 Descending Cleveland Center
04:27PM 41.4983 -81.4119 270° West 117 135 2,900  Descending Cleveland Center
04:28PM 41.4981 -81.4592 270° West 114 131 3,000 60 Climbing Cleveland Center
04:29PM 41.5081 -81.4981 289° West 101 116 3,100  Climbing Cleveland Center
04:30PM 41.5161 -81.5258 291° West 97 112 3,100 -60 Level Cleveland Center
04:31PM 41.5283 -81.5678 291° West 117 135 3,000 -300 Descending Cleveland Center
04:32PM 41.5406 -81.6042 294° West 106 122 2,500 -840 Descending Cleveland Center
04:33PM 41.5361 -81.6400 261° West 106 122 1,400 -780 Descending Cleveland Center
04:34PM 41.5253 -81.6675 242° Southwest 89 102 900 -480 Descending Cleveland Center
04:36PM 41.5175 -81.6833 176° South  Level Estimated
04:43PM 41.5175 -81.6833 281° West  Level Estimated